Soaring Guidance
Issued by NWS Reno, NV

Home | Current Version | Previous Version | Text Only | Print | Product List | Glossary On
Versions: 1 2 3 4 5 6 7 8 9 10 11 12 13
000
UXUS97 KREV 101457
SRGREV

SOARING FORECAST
NATIONAL WEATHER SERVICE - RENO NV
700 AM PST WED FEB 10 2016

THIS SOARING FORECAST IS FOR THE EASTERN SIERRA AND WESTERN NEVADA
WITH SPECIFIC INDICES FOR THE GREATER RENO AREA.

THIS FORECAST IS PREPARED DAILY BY 700 AM AND IS NOT UPDATED.

FOR CURRENT FLIGHT CONDITIONS...FORECASTS...AND ADVISORIES...ACCESS
YOUR LOCAL BRIEFING OUTLET OR FLIGHT SERVICE STATION.

*******************************************************************
FORECASTED LOCAL INDICES FOR RENO:        TODAY     YESTERDAY
FORECASTED MAX TEMP AT RENO (DEG F).....     65          60
FORECASTED TRIGGER TEMPERATURE (DEG F)..     66          71
   EXCEEDED YESTERDAY BY 955 AM PST
FORECASTED MAXIMUM ALTITUDE (FT MSL)....   8000        7100
FORECASTED SOARING INDEX (FPM)..........    240         213
FORECASTED K-INDEX.........VALID 18Z....     -5         -11
FORECASTED K-INDEX.........VALID 00Z....     -8          -2
FORECASTED LIFTED INDEX....VALID 18Z....      9          12
FORECASTED LIFTED INDEX....VALID 00Z....      9           8

AFTERNOON WINDS ALOFT FORECAST
MSL (FT) WIND/TEMP
9000  2510/+07
10000 2511/+05
12000 2514/+01
14000 2515/-04
16000 2516/-09
18000 2520/-14
24000 2634/-26
30000 2732/-44
34000 2834/-55
39000 2740/-64

SLIDE MOUNTAIN DATA:
     DATE       TIME     TEMP  DEWPT   RH         WIND (MPH)
                        (F)   (F)           | DIR  SPEED GUST
2016-02-10    05:50      36     9     27    | 263   36   42
2016-02-10    05:30      35     9     28    | 263   36   42
2016-02-10    05:20      36    10     28    | 250   38   48
2016-02-10    05:00      35     9     28    | 251   34   44

RENO TAF FORECAST:
KRNO 101120Z 1012/1112 VRB04KT P6SM SCT250

CARSON CITY TAF FORECAST:
KCXP 101120Z 1012/1112 VRB04KT P6SM SCT250

OUTLOOK FOR THE RENO-CARSON CITY-MINDEN AREA:
.THURSDAY...PARTLY CLOUDY. HIGHS 62 TO 67. LIGHT WINDS BECOMING
SOUTH UP TO 10 MPH IN THE AFTERNOON.

SUNRISE AND SUNSET
FEBRUARY 10 2016......SUNRISE   658 AM PST   SUNSET   529 PM PST
FEBRUARY 11 2016......SUNRISE   657 AM PST   SUNSET   531 PM PST


USA.gov is the U.S. government's official web portal to all federal, state and local government web resources and services.